Rechercher aéroport 
image banner adimage banner ad
image banner ad

SSNG - Montenegro Airport

Situé à Montenegro, Brazil

ICAO - SSNG, IATA - QGF

Données fournies par Airmate  

Information générale

Coordonnées: S29°43'11" W51°29'20"
Élévation : 78 feet MSL.
Variation magnétique : -17° East
Voir autres Aéroports à Rio Grande do Sul

Données opérationnelles

Accessible au public
Heure actuelle UTC:
Heure actuelle locale:
Météo à : SBCO - Canoas Airport ( 42 km )
METAR: SBCO 271600Z 07006KT 4000 -RA BR FEW007 FEW030TCU OVC100 20/19 Q1007
TAF: TAF SBCO 270900Z 2712/2724 13006KT 8000 BKN009 BKN030 TX27/2716Z TN16/2722Z BECMG 2714/2716 9999 NSW BKN020 BECMG 2720/2724 SCT020 RMK PEA
Voir NOTAMs / SUP AIP / TFR affectant cet aéroport [VIEW]
Fréquences de communication: [VIEW]

Pistes:

Identifiant RWYQFULongueur (ft)Largeur (ft)SurfaceLDA (ft)
13301875GRS
31301875GRS

Coordonnées de l'aéroport

Adresse: Montenegro Brazil

Autres services d'aviation

Clubs d'aviation (sans but lucratif)

Aeroclube De Montenegro

Aeroclube De Montenegro

Vue satellite de SSNG